createdAt,value
2017-06-21T00:01:24.665Z,18.70
2017-06-21T00:03:54.347Z,18.60
2017-06-21T00:06:24.038Z,18.60
2017-06-21T00:08:53.727Z,18.60
2017-06-21T00:11:24.171Z,18.40
2017-06-21T00:13:54.819Z,18.40
2017-06-21T00:16:24.526Z,18.40
2017-06-21T00:18:54.210Z,18.50
2017-06-21T00:21:24.651Z,18.30
2017-06-21T00:23:55.109Z,18.30
2017-06-21T00:26:24.785Z,18.30
2017-06-21T00:28:55.231Z,18.30
2017-06-21T00:31:24.904Z,18.30
2017-06-21T00:33:54.600Z,18.20
2017-06-21T00:36:24.267Z,18.20
2017-06-21T00:38:53.958Z,18.10
2017-06-21T00:41:23.636Z,18.00
2017-06-21T00:43:53.314Z,18.00
2017-06-21T00:46:23.016Z,18.00
2017-06-21T00:48:52.698Z,18.00
2017-06-21T00:51:22.394Z,17.90
2017-06-21T00:53:52.827Z,18.00
2017-06-21T00:56:22.514Z,18.00
2017-06-21T00:58:52.188Z,18.00
2017-06-21T01:01:21.871Z,17.90
2017-06-21T01:03:51.542Z,17.90
2017-06-21T01:06:21.245Z,17.80
2017-06-21T01:08:50.907Z,17.80
2017-06-21T01:11:20.718Z,17.70
2017-06-21T01:13:50.388Z,17.60
2017-06-21T01:16:20.138Z,17.60
2017-06-21T01:18:49.801Z,17.60
2017-06-21T01:21:19.499Z,17.60
2017-06-21T01:23:49.164Z,17.50
2017-06-21T01:26:18.861Z,17.50
2017-06-21T01:28:49.308Z,17.30
2017-06-21T01:31:18.988Z,17.30
2017-06-21T01:33:49.810Z,17.30
2017-06-21T01:36:19.510Z,17.30
2017-06-21T01:38:49.186Z,17.20
2017-06-21T01:41:18.868Z,17.20
2017-06-21T01:43:48.192Z,17.10
2017-06-21T01:46:17.853Z,17.10
2017-06-21T01:48:47.187Z,17.10
2017-06-21T01:51:16.311Z,17.00
2017-06-21T01:53:45.656Z,16.90
2017-06-21T01:56:14.648Z,16.90
2017-06-21T01:58:44.343Z,16.90
2017-06-21T02:01:14.010Z,16.80
2017-06-21T02:03:43.710Z,16.80
2017-06-21T02:06:13.394Z,16.80
2017-06-21T02:08:43.863Z,16.80
2017-06-21T02:11:13.536Z,16.80
2017-06-21T02:13:43.988Z,16.80
2017-06-21T02:16:13.647Z,16.80
2017-06-21T02:18:43.344Z,16.80
2017-06-21T02:21:13.032Z,16.70
2017-06-21T02:23:42.724Z,16.70
2017-06-21T02:26:12.417Z,16.60
2017-06-21T02:28:42.940Z,16.50
2017-06-21T02:31:13.421Z,16.40
2017-06-21T02:33:43.093Z,16.40
2017-06-21T02:36:12.785Z,16.40
2017-06-21T02:38:43.224Z,16.30
2017-06-21T02:41:12.903Z,16.30
2017-06-21T02:43:42.580Z,16.30
2017-06-21T02:46:12.275Z,16.30
2017-06-21T02:48:41.950Z,16.20
2017-06-21T02:51:12.097Z,16.10
2017-06-21T02:53:41.771Z,16.10
2017-06-21T02:56:11.460Z,16.10
2017-06-21T02:58:40.943Z,16.10
2017-06-21T03:01:10.424Z,16.10
2017-06-21T03:03:39.893Z,16.10
2017-06-21T03:06:09.591Z,16.00
2017-06-21T03:08:39.261Z,16.00
2017-06-21T03:11:08.952Z,15.90
2017-06-21T03:13:38.623Z,15.90
2017-06-21T03:16:08.321Z,15.90
2017-06-21T03:18:38.024Z,15.90
2017-06-21T03:21:07.682Z,15.90
2017-06-21T03:23:38.144Z,15.80
2017-06-21T03:26:07.815Z,15.80
2017-06-21T03:28:38.286Z,15.70
2017-06-21T03:31:07.963Z,15.70
2017-06-21T03:33:37.647Z,15.70
2017-06-21T03:36:07.349Z,15.80
2017-06-21T03:38:37.045Z,15.70
2017-06-21T03:41:06.720Z,15.80
2017-06-21T03:43:36.212Z,15.80
2017-06-21T03:46:05.884Z,15.80
2017-06-21T03:48:35.565Z,15.70
2017-06-21T03:51:04.903Z,15.70
2017-06-21T03:53:34.582Z,15.80
2017-06-21T03:56:04.253Z,15.90
2017-06-21T03:58:33.967Z,15.90
2017-06-21T04:01:03.647Z,15.90
2017-06-21T04:03:33.338Z,15.90
2017-06-21T04:06:03.030Z,15.80
2017-06-21T04:08:32.731Z,15.80
2017-06-21T04:11:03.403Z,15.90
2017-06-21T04:13:33.083Z,15.90
2017-06-21T04:16:02.772Z,15.80
2017-06-21T04:18:32.459Z,15.90
2017-06-21T04:21:02.919Z,15.90
2017-06-21T04:23:32.591Z,15.90
2017-06-21T04:26:03.056Z,15.90
2017-06-21T04:28:32.731Z,15.90
2017-06-21T04:31:03.200Z,15.90
2017-06-21T04:33:32.904Z,15.90
2017-06-21T04:36:02.591Z,15.90
2017-06-21T04:38:32.290Z,16.00
2017-06-21T04:41:01.995Z,16.00
2017-06-21T04:43:32.432Z,16.10
2017-06-21T04:46:02.124Z,16.10
2017-06-21T04:48:31.832Z,16.00
2017-06-21T04:51:01.511Z,16.10
2017-06-21T04:53:31.200Z,16.10
2017-06-21T04:56:00.934Z,16.00
2017-06-21T04:58:30.649Z,16.00
2017-06-21T05:01:01.055Z,16.10
2017-06-21T05:03:30.757Z,16.10
2017-06-21T05:06:00.431Z,16.20
2017-06-21T05:08:31.002Z,16.20
2017-06-21T05:11:00.765Z,16.20
2017-06-21T05:13:31.207Z,16.40
2017-06-21T05:16:00.885Z,16.40
2017-06-21T05:18:30.584Z,16.60
2017-06-21T05:21:00.258Z,16.80
2017-06-21T05:23:29.960Z,17.10
2017-06-21T05:25:59.632Z,17.20
2017-06-21T05:28:29.311Z,17.30
2017-06-21T05:30:59.005Z,17.30
2017-06-21T05:33:28.691Z,17.40
2017-06-21T05:35:58.399Z,17.60
2017-06-21T05:38:28.092Z,17.80
2017-06-21T05:40:58.562Z,18.50
2017-06-21T05:43:28.248Z,18.50
2017-06-21T05:45:57.947Z,19.00
2017-06-21T05:48:28.411Z,19.60
2017-06-21T05:50:57.835Z,19.50
2017-06-21T05:53:27.531Z,19.90
2017-06-21T05:55:56.959Z,19.90
2017-06-21T05:58:27.119Z,20.20
2017-06-21T06:00:56.552Z,20.20
2017-06-21T06:03:25.991Z,20.20
2017-06-21T06:05:55.437Z,20.40
2017-06-21T06:08:24.860Z,20.40
2017-06-21T06:10:54.289Z,20.10
2017-06-21T06:13:23.728Z,20.10
2017-06-21T06:15:53.157Z,20.10
2017-06-21T06:18:22.546Z,20.20
2017-06-21T06:20:51.961Z,20.20
2017-06-21T06:23:21.374Z,20.30
2017-06-21T06:25:50.784Z,20.50
2017-06-21T06:28:20.602Z,20.60
2017-06-21T06:30:50.001Z,20.70
2017-06-21T06:33:19.416Z,20.60
2017-06-21T06:35:48.811Z,20.60
2017-06-21T06:38:18.226Z,20.70
2017-06-21T06:40:48.408Z,20.90
2017-06-21T06:43:17.822Z,20.80
2017-06-21T06:45:47.238Z,20.90
2017-06-21T06:48:16.647Z,20.90
2017-06-21T06:50:46.055Z,20.80
2017-06-21T06:53:15.488Z,20.90
2017-06-21T06:55:44.887Z,21.10
2017-06-21T06:58:14.315Z,21.10
2017-06-21T07:00:43.728Z,21.30
2017-06-21T07:03:13.927Z,21.50
2017-06-21T07:05:43.331Z,21.50
2017-06-21T07:08:13.344Z,21.50
2017-06-21T07:10:42.763Z,21.50
2017-06-21T07:13:12.391Z,21.40
2017-06-21T07:15:42.570Z,21.50
2017-06-21T07:18:11.981Z,21.50
2017-06-21T07:20:41.404Z,21.50
2017-06-21T07:23:10.824Z,21.60
2017-06-21T07:25:41.003Z,21.90
2017-06-21T07:28:10.408Z,21.90
2017-06-21T07:30:39.830Z,21.80
2017-06-21T07:33:09.236Z,21.50
2017-06-21T07:35:38.661Z,21.40
2017-06-21T07:38:08.829Z,22.00
2017-06-21T07:40:38.248Z,22.00
2017-06-21T07:43:07.666Z,22.30
2017-06-21T07:45:37.073Z,22.20
2017-06-21T07:48:06.470Z,21.80
2017-06-21T07:50:35.908Z,21.90
2017-06-21T07:53:05.309Z,22.50
2017-06-21T07:55:34.718Z,22.50
2017-06-21T07:58:04.903Z,22.40
2017-06-21T08:00:34.304Z,22.40
2017-06-21T08:03:03.727Z,22.40
2017-06-21T08:05:33.894Z,22.60
2017-06-21T08:08:03.324Z,22.60
2017-06-21T08:10:32.726Z,22.90
2017-06-21T08:13:02.172Z,23.20
2017-06-21T08:15:32.347Z,23.30
2017-06-21T08:18:01.780Z,23.30
2017-06-21T08:20:31.961Z,23.50
2017-06-21T08:23:01.394Z,23.50
2017-06-21T08:25:30.817Z,23.40
2017-06-21T08:28:01.011Z,23.70
2017-06-21T08:30:30.431Z,23.70
2017-06-21T08:32:59.851Z,24.10
2017-06-21T08:35:30.011Z,23.80
2017-06-21T08:37:59.235Z,23.70
2017-06-21T08:40:28.650Z,24.00
2017-06-21T08:42:58.040Z,23.70
2017-06-21T08:45:27.465Z,24.00
2017-06-21T08:47:56.908Z,24.30
2017-06-21T08:50:26.317Z,24.30
2017-06-21T08:52:55.970Z,24.30
2017-06-21T08:55:25.400Z,23.80
2017-06-21T08:57:55.571Z,24.50
2017-06-21T09:00:24.992Z,24.50
2017-06-21T09:02:54.399Z,24.60
2017-06-21T09:05:23.815Z,24.70
2017-06-21T09:07:53.979Z,24.70
2017-06-21T09:10:23.385Z,24.70
2017-06-21T09:12:52.797Z,24.80
2017-06-21T09:15:22.216Z,24.80
2017-06-21T09:17:51.632Z,24.40
2017-06-21T09:20:21.062Z,24.90
2017-06-21T09:22:51.228Z,25.80
2017-06-21T09:25:20.644Z,25.70
2017-06-21T09:27:50.057Z,25.40
2017-06-21T09:30:19.448Z,25.50
2017-06-21T09:32:48.859Z,25.90
2017-06-21T09:35:18.272Z,25.90
2017-06-21T09:37:47.692Z,26.40
2017-06-21T09:40:17.863Z,26.30
2017-06-21T09:42:47.284Z,26.20
2017-06-21T09:45:16.704Z,26.20
2017-06-21T09:47:46.090Z,25.90
2017-06-21T09:50:15.495Z,25.80
2017-06-21T09:52:44.917Z,26.10
2017-06-21T09:55:14.348Z,26.60
2017-06-21T09:57:44.529Z,28.00
2017-06-21T10:00:13.940Z,28.00
2017-06-21T10:02:43.346Z,27.80
2017-06-21T10:05:12.742Z,27.80
2017-06-21T10:07:41.818Z,27.40
2017-06-21T10:10:11.235Z,27.20
2017-06-21T10:12:40.622Z,27.20
2017-06-21T10:15:10.031Z,27.30
2017-06-21T10:17:39.427Z,27.60
2017-06-21T10:20:08.844Z,27.60
2017-06-21T10:22:38.241Z,27.70
2017-06-21T10:25:07.655Z,28.40
2017-06-21T10:27:37.069Z,28.00
2017-06-21T10:30:06.291Z,27.80
2017-06-21T10:32:36.467Z,28.50
2017-06-21T10:35:05.887Z,28.40
2017-06-21T10:37:35.280Z,29.10
2017-06-21T10:40:04.351Z,29.10
2017-06-21T10:42:33.767Z,29.20
2017-06-21T10:45:03.188Z,28.70
2017-06-21T10:47:32.590Z,29.00
2017-06-21T10:50:02.037Z,29.10
2017-06-21T10:52:32.311Z,28.00
2017-06-21T10:55:01.837Z,28.00
2017-06-21T10:57:31.247Z,28.50
2017-06-21T11:00:00.666Z,29.30
2017-06-21T11:02:30.675Z,30.00
2017-06-21T11:05:00.874Z,30.10
2017-06-21T11:07:30.287Z,30.10
2017-06-21T11:09:59.687Z,31.00
2017-06-21T11:12:29.103Z,31.20
2017-06-21T11:14:59.279Z,30.50
2017-06-21T11:17:28.704Z,30.50
2017-06-21T11:19:58.109Z,31.00
2017-06-21T11:22:27.524Z,30.80
2017-06-21T11:24:56.938Z,30.70
2017-06-21T11:27:26.371Z,30.60
2017-06-21T11:29:55.805Z,29.90
2017-06-21T11:32:25.215Z,29.30
2017-06-21T11:34:54.615Z,30.10
2017-06-21T11:37:24.030Z,30.10
2017-06-21T11:39:53.422Z,29.70
2017-06-21T11:42:22.875Z,29.50
2017-06-21T11:44:53.052Z,30.60
2017-06-21T11:47:22.470Z,30.60
2017-06-21T11:49:51.899Z,31.20
2017-06-21T11:52:22.086Z,31.40
2017-06-21T11:54:51.510Z,31.30
2017-06-21T11:57:20.924Z,31.20
2017-06-21T11:59:51.123Z,31.00
2017-06-21T12:02:20.636Z,30.90
2017-06-21T12:04:50.148Z,31.10
2017-06-21T12:07:19.581Z,31.50
2017-06-21T12:09:49.006Z,31.60
2017-06-21T12:12:18.403Z,31.50
2017-06-21T12:14:47.827Z,31.00
2017-06-21T12:17:17.229Z,30.70
2017-06-21T12:19:46.746Z,30.60
2017-06-21T12:22:16.164Z,30.00
2017-06-21T12:24:45.588Z,29.60
2017-06-21T12:27:15.038Z,29.70
2017-06-21T12:29:45.225Z,30.40
2017-06-21T12:32:14.653Z,30.40
2017-06-21T12:34:44.070Z,30.80
2017-06-21T12:37:13.476Z,30.90
2017-06-21T12:39:43.651Z,31.10
2017-06-21T12:42:13.070Z,31.10
2017-06-21T12:44:42.480Z,31.60
2017-06-21T12:47:11.895Z,31.20
2017-06-21T12:49:41.319Z,30.60
2017-06-21T12:52:11.507Z,31.60
2017-06-21T12:54:40.907Z,31.60
2017-06-21T12:57:10.326Z,30.80
2017-06-21T12:59:39.752Z,30.40
2017-06-21T13:02:09.944Z,30.80
2017-06-21T13:04:39.351Z,30.80
2017-06-21T13:07:08.776Z,30.80
2017-06-21T13:09:38.947Z,30.90
2017-06-21T13:12:08.375Z,30.90
2017-06-21T13:14:37.783Z,30.90
2017-06-21T13:17:07.182Z,31.30
2017-06-21T13:19:36.601Z,31.40
2017-06-21T13:22:05.988Z,31.40
2017-06-21T13:24:35.417Z,31.60
2017-06-21T13:27:05.577Z,30.40
2017-06-21T13:29:35.001Z,30.40
2017-06-21T13:32:04.394Z,30.40
2017-06-21T13:34:33.826Z,30.40
2017-06-21T13:37:03.224Z,29.70
2017-06-21T13:39:32.631Z,29.80
2017-06-21T13:42:02.039Z,29.70
2017-06-21T13:44:31.467Z,30.00
2017-06-21T13:47:01.647Z,30.20
2017-06-21T13:49:31.057Z,30.10
2017-06-21T13:52:00.452Z,29.70
2017-06-21T13:54:29.871Z,30.10
2017-06-21T13:56:59.271Z,29.70
2017-06-21T13:59:28.694Z,30.10
2017-06-21T14:01:58.871Z,30.70
2017-06-21T14:04:28.303Z,30.70
2017-06-21T14:06:57.704Z,31.20
2017-06-21T14:09:27.102Z,31.40
2017-06-21T14:11:56.523Z,31.30
2017-06-21T14:14:25.921Z,31.90
2017-06-21T14:16:55.351Z,32.00
2017-06-21T14:19:24.766Z,30.80
2017-06-21T14:21:53.988Z,31.40
2017-06-21T14:24:23.388Z,31.50
2017-06-21T14:26:52.833Z,31.20
2017-06-21T14:29:22.227Z,30.20
2017-06-21T14:31:51.676Z,29.40
2017-06-21T14:34:21.072Z,28.90
2017-06-21T14:36:51.258Z,26.90
2017-06-21T14:39:20.659Z,26.90
2017-06-21T14:41:50.100Z,26.40
2017-06-21T14:44:20.120Z,26.70
2017-06-21T14:46:49.554Z,26.70
2017-06-21T14:49:19.007Z,26.70
2017-06-21T14:51:49.169Z,26.90
2017-06-21T14:54:18.586Z,26.90
2017-06-21T14:56:47.992Z,26.90
2017-06-21T14:59:17.411Z,26.40
2017-06-21T15:01:46.927Z,26.10
2017-06-21T15:04:16.340Z,26.00
2017-06-21T15:06:45.836Z,26.20
2017-06-21T15:09:15.242Z,26.20
2017-06-21T15:11:44.745Z,26.30
2017-06-21T15:14:14.164Z,26.40
2017-06-21T15:16:43.568Z,26.30
2017-06-21T15:19:12.971Z,26.10
2017-06-21T15:21:43.153Z,25.70
2017-06-21T15:24:12.575Z,25.60
2017-06-21T15:26:41.975Z,25.60
2017-06-21T15:29:11.396Z,25.60
2017-06-21T15:31:40.795Z,25.70
2017-06-21T15:34:10.188Z,25.90
2017-06-21T15:36:39.603Z,25.80
2017-06-21T15:39:09.006Z,25.70
2017-06-21T15:41:38.418Z,25.70
2017-06-21T15:44:08.589Z,25.60
2017-06-21T15:46:38.015Z,25.60
2017-06-21T15:49:07.419Z,25.90
2017-06-21T15:51:36.834Z,25.90
2017-06-21T15:54:06.239Z,26.00
2017-06-21T15:56:35.748Z,26.10
2017-06-21T15:59:05.136Z,26.20
2017-06-21T16:01:34.562Z,26.20
2017-06-21T16:04:03.969Z,25.90
2017-06-21T16:06:34.148Z,25.80
2017-06-21T16:09:03.357Z,25.80
2017-06-21T16:11:32.807Z,25.70
2017-06-21T16:14:02.981Z,25.50
2017-06-21T16:16:32.411Z,25.50
2017-06-21T16:19:01.821Z,25.50
2017-06-21T16:21:31.235Z,25.60
2017-06-21T16:24:01.428Z,25.40
2017-06-21T16:26:30.824Z,25.40
2017-06-21T16:29:00.256Z,25.30
2017-06-21T16:31:30.425Z,25.40
2017-06-21T16:33:59.872Z,25.40
2017-06-21T16:36:29.285Z,25.40
2017-06-21T16:38:59.491Z,25.00
2017-06-21T16:41:28.908Z,25.00
2017-06-21T16:43:59.114Z,25.10
2017-06-21T16:46:28.517Z,25.10
2017-06-21T16:48:58.702Z,25.30
2017-06-21T16:51:28.108Z,25.20
2017-06-21T16:53:57.649Z,25.40
2017-06-21T16:56:27.073Z,25.40
2017-06-21T16:58:56.497Z,25.50
2017-06-21T17:01:25.924Z,25.40
2017-06-21T17:03:55.347Z,25.40
2017-06-21T17:06:25.553Z,25.10
2017-06-21T17:08:54.809Z,25.10
2017-06-21T17:11:24.221Z,24.90
2017-06-21T17:13:53.640Z,24.80
2017-06-21T17:16:23.068Z,24.70
2017-06-21T17:18:52.480Z,24.70
2017-06-21T17:21:22.956Z,24.60
2017-06-21T17:23:52.370Z,24.60
2017-06-21T17:26:21.778Z,24.60
2017-06-21T17:28:51.183Z,24.70
2017-06-21T17:31:20.601Z,24.80
2017-06-21T17:33:50.001Z,24.70
2017-06-21T17:36:19.436Z,24.70
2017-06-21T17:38:49.605Z,24.60
2017-06-21T17:41:19.052Z,24.60
2017-06-21T17:43:49.230Z,24.60
2017-06-21T17:46:18.793Z,24.60
2017-06-21T17:48:48.943Z,24.50
2017-06-21T17:51:18.415Z,24.40
2017-06-21T17:53:47.835Z,24.30
2017-06-21T17:56:18.008Z,24.20
2017-06-21T17:58:47.415Z,24.10
2017-06-21T18:01:16.629Z,24.10
2017-06-21T18:03:46.045Z,24.00
2017-06-21T18:06:16.358Z,23.90
2017-06-21T18:08:46.555Z,23.90
2017-06-21T18:11:15.956Z,23.80
2017-06-21T18:13:45.375Z,23.90
2017-06-21T18:16:14.773Z,23.80
2017-06-21T18:18:44.203Z,23.70
2017-06-21T18:21:14.403Z,23.60
2017-06-21T18:23:43.824Z,23.60
2017-06-21T18:26:13.988Z,23.60
2017-06-21T18:28:43.452Z,23.60
2017-06-21T18:31:13.625Z,23.60
2017-06-21T18:33:43.112Z,23.60
2017-06-21T18:36:12.514Z,23.60
2017-06-21T18:38:41.941Z,23.50
2017-06-21T18:41:11.359Z,23.50
2017-06-21T18:43:40.794Z,23.50
2017-06-21T18:46:10.411Z,23.50
2017-06-21T18:48:39.835Z,23.50
2017-06-21T18:51:09.247Z,23.40
2017-06-21T18:53:39.409Z,23.30
2017-06-21T18:56:08.840Z,23.30
2017-06-21T18:58:38.255Z,23.20
2017-06-21T19:01:07.688Z,23.20
2017-06-21T19:03:37.863Z,23.10
2017-06-21T19:06:07.275Z,23.10
2017-06-21T19:08:36.689Z,22.90
2017-06-21T19:11:06.114Z,23.00
2017-06-21T19:13:36.283Z,22.90
2017-06-21T19:16:05.699Z,22.90
2017-06-21T19:18:35.123Z,22.90
2017-06-21T19:21:04.544Z,22.70
2017-06-21T19:23:34.232Z,22.70
2017-06-21T19:26:04.448Z,22.50
2017-06-21T19:28:33.869Z,22.50
2017-06-21T19:31:03.283Z,22.50
2017-06-21T19:33:32.696Z,22.40
2017-06-21T19:36:02.103Z,22.40
2017-06-21T19:38:31.531Z,22.30
2017-06-21T19:41:00.945Z,22.20
2017-06-21T19:43:31.160Z,22.10
2017-06-21T19:46:01.336Z,22.10
2017-06-21T19:48:30.768Z,22.00
2017-06-21T19:51:00.926Z,22.00
2017-06-21T19:53:30.350Z,21.90
2017-06-21T19:55:59.765Z,21.90
2017-06-21T19:58:29.204Z,21.80
2017-06-21T20:00:58.627Z,21.80
2017-06-21T20:03:28.074Z,21.70
2017-06-21T20:05:57.474Z,21.60
2017-06-21T20:08:26.902Z,21.50
2017-06-21T20:10:57.070Z,21.40
2017-06-21T20:13:26.478Z,21.40
2017-06-21T20:15:55.910Z,21.30
2017-06-21T20:18:25.312Z,21.20
2017-06-21T20:20:54.755Z,21.10
2017-06-21T20:23:24.911Z,20.80
2017-06-21T20:25:54.330Z,20.80
2017-06-21T20:28:23.727Z,20.80
2017-06-21T20:30:53.153Z,20.70
2017-06-21T20:33:22.556Z,20.60
2017-06-21T20:35:51.984Z,20.50
2017-06-21T20:38:22.459Z,20.50
2017-06-21T20:40:51.882Z,20.50
2017-06-21T20:43:21.293Z,20.40
2017-06-21T20:45:50.732Z,20.40
2017-06-21T20:48:20.143Z,20.30
2017-06-21T20:50:50.324Z,20.30
2017-06-21T20:53:19.753Z,20.30
2017-06-21T20:55:49.956Z,20.40
2017-06-21T20:58:19.378Z,20.30
2017-06-21T21:00:49.559Z,20.50
2017-06-21T21:03:18.972Z,20.50
2017-06-21T21:05:48.423Z,20.50
2017-06-21T21:08:18.604Z,20.60
2017-06-21T21:10:48.018Z,20.60
2017-06-21T21:13:17.439Z,20.60
2017-06-21T21:15:47.635Z,20.60
2017-06-21T21:18:17.060Z,20.60
2017-06-21T21:20:47.232Z,20.70
2017-06-21T21:23:16.665Z,20.70
2017-06-21T21:25:46.075Z,20.70
2017-06-21T21:28:15.513Z,20.70
2017-06-21T21:30:44.919Z,20.70
2017-06-21T21:33:14.335Z,20.60
2017-06-21T21:35:43.743Z,20.60
2017-06-21T21:38:13.176Z,20.50
2017-06-21T21:40:42.599Z,20.40
2017-06-21T21:43:12.024Z,20.40
2017-06-21T21:45:41.452Z,20.40
2017-06-21T21:48:10.855Z,20.30
2017-06-21T21:50:40.280Z,20.20
2017-06-21T21:53:09.690Z,20.20
2017-06-21T21:55:39.110Z,20.20
2017-06-21T21:58:09.217Z,20.10
2017-06-21T22:00:38.633Z,20.10
2017-06-21T22:03:07.844Z,20.00
2017-06-21T22:05:37.253Z,20.00
2017-06-21T22:08:07.429Z,20.00
2017-06-21T22:10:36.853Z,20.00
2017-06-21T22:13:06.252Z,20.00
2017-06-21T22:15:35.667Z,19.80
2017-06-21T22:18:05.078Z,19.80
2017-06-21T22:20:34.507Z,19.70
2017-06-21T22:23:03.924Z,19.70
2017-06-21T22:25:33.338Z,19.60
2017-06-21T22:28:02.546Z,19.60
2017-06-21T22:30:31.971Z,19.50
2017-06-21T22:33:01.387Z,19.50
2017-06-21T22:35:30.792Z,19.50
2017-06-21T22:38:00.243Z,19.50
2017-06-21T22:40:30.693Z,19.40
2017-06-21T22:42:59.925Z,19.40
2017-06-21T22:45:29.351Z,19.40
2017-06-21T22:47:59.077Z,19.40
2017-06-21T22:50:28.459Z,19.40
2017-06-21T22:52:58.648Z,19.30
2017-06-21T22:55:28.061Z,19.30
2017-06-21T22:57:57.494Z,19.30
2017-06-21T23:00:27.682Z,19.30
2017-06-21T23:02:56.908Z,19.20
2017-06-21T23:05:26.372Z,19.10
2017-06-21T23:07:55.795Z,19.10
2017-06-21T23:10:25.205Z,19.10
2017-06-21T23:12:55.394Z,19.00
2017-06-21T23:15:24.610Z,19.00
2017-06-21T23:17:54.295Z,18.90
2017-06-21T23:20:23.719Z,18.90
2017-06-21T23:22:53.385Z,18.90
2017-06-21T23:25:24.476Z,18.80
2017-06-21T23:27:54.152Z,18.70
2017-06-21T23:30:24.617Z,18.60
2017-06-21T23:32:54.295Z,18.60
2017-06-21T23:35:24.738Z,18.60
2017-06-21T23:37:54.444Z,18.60
2017-06-21T23:40:23.970Z,18.60
2017-06-21T23:42:53.156Z,18.60
2017-06-21T23:45:22.835Z,18.60
2017-06-21T23:47:53.288Z,18.60
2017-06-21T23:50:22.966Z,18.60
2017-06-21T23:52:53.415Z,18.60
2017-06-21T23:55:23.120Z,18.50
2017-06-21T23:57:53.564Z,18.50
